sensor_id;sensor_type;location;lat;lon;timestamp;noise_LAeq;noise_LA_min;noise_LA_max;noise_LA01;noise_LA95
69609;Laerm;56815;52.320;4.858;2022-08-21T00:00:08;32.20;30.38;33.88;;
69609;Laerm;56815;52.320;4.858;2022-08-21T00:00:21;31.93;30.03;33.84;;
69609;Laerm;56815;52.320;4.858;2022-08-21T00:00:31;32.58;29.71;34.81;;
69609;Laerm;56815;52.320;4.858;2022-08-21T00:00:42;32.32;30.40;38.00;;
69609;Laerm;56815;52.320;4.858;2022-08-21T00:00:52;32.06;29.95;34.81;;
69609;Laerm;56815;52.320;4.858;2022-08-21T00:01:03;31.82;29.82;37.11;;
69609;Laerm;56815;52.320;4.858;2022-08-21T00:01:16;31.97;30.57;34.40;;
69609;Laerm;56815;52.320;4.858;2022-08-21T00:01:28;32.35;30.18;35.23;;
69609;Laerm;56815;52.320;4.858;2022-08-21T00:01:38;32.63;30.22;40.82;;
69609;Laerm;56815;52.320;4.858;2022-08-21T00:01:49;31.69;29.82;36.46;;
69609;Laerm;56815;52.320;4.858;2022-08-21T00:01:59;31.60;29.71;33.44;;
69609;Laerm;56815;52.320;4.858;2022-08-21T00:02:13;31.85;30.37;35.50;;
69609;Laerm;56815;52.320;4.858;2022-08-21T00:02:25;32.69;30.70;37.52;;
69609;Laerm;56815;52.320;4.858;2022-08-21T00:02:35;32.74;30.98;38.24;;
69609;Laerm;56815;52.320;4.858;2022-08-21T00:02:47;33.21;30.96;36.38;;
69609;Laerm;56815;52.320;4.858;2022-08-21T00:03:00;41.22;32.92;48.40;;
69609;Laerm;56815;52.320;4.858;2022-08-21T00:03:11;34.56;32.19;37.96;;
69609;Laerm;56815;52.320;4.858;2022-08-21T00:03:22;33.00;30.68;34.98;;
69609;Laerm;56815;52.320;4.858;2022-08-21T00:03:33;32.05;30.38;34.78;;
69609;Laerm;56815;52.320;4.858;2022-08-21T00:03:44;32.83;30.92;37.46;;
69609;Laerm;56815;52.320;4.858;2022-08-21T00:03:54;32.17;30.51;33.79;;
69609;Laerm;56815;52.320;4.858;2022-08-21T00:04:05;31.58;30.16;33.24;;
69609;Laerm;56815;52.320;4.858;2022-08-21T00:04:16;31.96;30.21;33.91;;
69609;Laerm;56815;52.320;4.858;2022-08-21T00:04:27;32.40;30.62;34.38;;
69609;Laerm;56815;52.320;4.858;2022-08-21T00:04:37;34.09;30.70;39.03;;
69609;Laerm;56815;52.320;4.858;2022-08-21T00:04:48;32.83;30.67;38.48;;
69609;Laerm;56815;52.320;4.858;2022-08-21T00:04:58;32.31;30.36;37.05;;
69609;Laerm;56815;52.320;4.858;2022-08-21T00:05:09;32.22;30.47;35.05;;
69609;Laerm;56815;52.320;4.858;2022-08-21T00:05:19;31.92;29.84;33.99;;
69609;Laerm;56815;52.320;4.858;2022-08-21T00:05:30;32.17;30.34;36.17;;
69609;Laerm;56815;52.320;4.858;2022-08-21T00:05:42;33.43;31.62;35.85;;
69609;Laerm;56815;52.320;4.858;2022-08-21T00:05:52;32.58;30.65;34.74;;
69609;Laerm;56815;52.320;4.858;2022-08-21T00:06:03;32.85;30.73;36.25;;
69609;Laerm;56815;52.320;4.858;2022-08-21T00:06:14;32.24;30.42;33.94;;
69609;Laerm;56815;52.320;4.858;2022-08-21T00:06:24;32.77;30.65;37.05;;
69609;Laerm;56815;52.320;4.858;2022-08-21T00:06:35;32.73;30.48;34.66;;
69609;Laerm;56815;52.320;4.858;2022-08-21T00:06:46;32.10;30.03;34.00;;
69609;Laerm;56815;52.320;4.858;2022-08-21T00:06:57;32.62;30.08;45.46;;
69609;Laerm;56815;52.320;4.858;2022-08-21T00:07:08;32.91;30.71;45.15;;
69609;Laerm;56815;52.320;4.858;2022-08-21T00:07:19;33.08;30.32;35.87;;
69609;Laerm;56815;52.320;4.858;2022-08-21T00:07:29;34.64;32.23;37.67;;
69609;Laerm;56815;52.320;4.858;2022-08-21T00:07:40;34.19;32.04;37.08;;
69609;Laerm;56815;52.320;4.858;2022-08-21T00:07:50;34.24;31.57;40.53;;
69609;Laerm;56815;52.320;4.858;2022-08-21T00:08:01;33.51;31.27;35.93;;
69609;Laerm;56815;52.320;4.858;2022-08-21T00:08:12;33.35;31.51;35.48;;
69609;Laerm;56815;52.320;4.858;2022-08-21T00:08:22;33.13;31.14;35.81;;
69609;Laerm;56815;52.320;4.858;2022-08-21T00:08:32;32.88;31.26;35.56;;
69609;Laerm;56815;52.320;4.858;2022-08-21T00:08:43;33.04;31.01;35.63;;
69609;Laerm;56815;52.320;4.858;2022-08-21T00:08:54;33.39;31.36;40.51;;
69609;Laerm;56815;52.320;4.858;2022-08-21T00:09:05;33.15;31.38;35.40;;
69609;Laerm;56815;52.320;4.858;2022-08-21T00:09:16;32.18;30.28;33.43;;
69609;Laerm;56815;52.320;4.858;2022-08-21T00:09:27;32.31;30.65;33.94;;
69609;Laerm;56815;52.320;4.858;2022-08-21T00:09:38;32.29;30.68;35.05;;
69609;Laerm;56815;52.320;4.858;2022-08-21T00:09:48;33.10;30.84;35.86;;
69609;Laerm;56815;52.320;4.858;2022-08-21T00:09:59;33.59;31.44;35.92;;
69609;Laerm;56815;52.320;4.858;2022-08-21T00:10:09;32.71;30.73;35.89;;
69609;Laerm;56815;52.320;4.858;2022-08-21T00:10:20;32.41;30.62;34.17;;
69609;Laerm;56815;52.320;4.858;2022-08-21T00:10:31;32.23;30.66;33.67;;
69609;Laerm;56815;52.320;4.858;2022-08-21T00:10:42;32.58;30.78;37.89;;
69609;Laerm;56815;52.320;4.858;2022-08-21T00:10:52;32.84;30.91;34.67;;
69609;Laerm;56815;52.320;4.858;2022-08-21T00:11:04;32.39;30.39;34.07;;
69609;Laerm;56815;52.320;4.858;2022-08-21T00:11:14;32.55;30.62;34.95;;
69609;Laerm;56815;52.320;4.858;2022-08-21T00:11:25;32.45;30.69;34.57;;
69609;Laerm;56815;52.320;4.858;2022-08-21T00:11:37;32.62;30.70;35.11;;
69609;Laerm;56815;52.320;4.858;2022-08-21T00:11:48;33.00;30.70;38.85;;
69609;Laerm;56815;52.320;4.858;2022-08-21T00:11:58;32.90;31.23;35.37;;
69609;Laerm;56815;52.320;4.858;2022-08-21T00:12:09;33.37;31.56;35.61;;
69609;Laerm;56815;52.320;4.858;2022-08-21T00:12:19;32.79;30.82;34.38;;
69609;Laerm;56815;52.320;4.858;2022-08-21T00:12:30;32.11;30.59;34.03;;
69609;Laerm;56815;52.320;4.858;2022-08-21T00:12:41;32.17;30.57;33.73;;
69609;Laerm;56815;52.320;4.858;2022-08-21T00:12:52;33.03;30.61;36.55;;
69609;Laerm;56815;52.320;4.858;2022-08-21T00:13:05;33.44;30.87;35.34;;
69609;Laerm;56815;52.320;4.858;2022-08-21T00:13:17;32.25;30.23;35.40;;
69609;Laerm;56815;52.320;4.858;2022-08-21T00:13:28;32.33;30.49;35.70;;
69609;Laerm;56815;52.320;4.858;2022-08-21T00:13:38;31.90;30.01;33.57;;
69609;Laerm;56815;52.320;4.858;2022-08-21T00:13:49;32.99;31.22;34.82;;
69609;Laerm;56815;52.320;4.858;2022-08-21T00:13:59;33.55;31.12;35.97;;
69609;Laerm;56815;52.320;4.858;2022-08-21T00:14:10;33.03;31.01;35.19;;
69609;Laerm;56815;52.320;4.858;2022-08-21T00:14:21;33.33;31.40;35.73;;
69609;Laerm;56815;52.320;4.858;2022-08-21T00:14:31;37.85;32.97;42.75;;
69609;Laerm;56815;52.320;4.858;2022-08-21T00:14:42;34.57;31.24;38.31;;
69609;Laerm;56815;52.320;4.858;2022-08-21T00:14:53;32.67;31.07;35.32;;
69609;Laerm;56815;52.320;4.858;2022-08-21T00:15:04;32.89;30.95;34.90;;
69609;Laerm;56815;52.320;4.858;2022-08-21T00:15:17;33.19;31.19;38.93;;
69609;Laerm;56815;52.320;4.858;2022-08-21T00:15:28;33.25;30.70;35.19;;
69609;Laerm;56815;52.320;4.858;2022-08-21T00:15:40;33.01;31.06;35.79;;
69609;Laerm;56815;52.320;4.858;2022-08-21T00:15:51;32.76;30.90;34.41;;
69609;Laerm;56815;52.320;4.858;2022-08-21T00:16:02;33.11;31.45;35.43;;
69609;Laerm;56815;52.320;4.858;2022-08-21T00:16:13;32.27;30.61;33.77;;
69609;Laerm;56815;52.320;4.858;2022-08-21T00:16:23;32.27;30.19;34.75;;
69609;Laerm;56815;52.320;4.858;2022-08-21T00:16:33;33.18;30.88;35.46;;
69609;Laerm;56815;52.320;4.858;2022-08-21T00:16:44;34.19;32.03;35.83;;
69609;Laerm;56815;52.320;4.858;2022-08-21T00:16:54;33.29;31.75;36.10;;
69609;Laerm;56815;52.320;4.858;2022-08-21T00:17:05;33.23;30.93;35.79;;
69609;Laerm;56815;52.320;4.858;2022-08-21T00:17:16;32.30;30.25;34.44;;
69609;Laerm;56815;52.320;4.858;2022-08-21T00:17:27;32.39;30.63;34.02;;
69609;Laerm;56815;52.320;4.858;2022-08-21T00:17:37;33.16;31.18;37.94;;
69609;Laerm;56815;52.320;4.858;2022-08-21T00:17:47;32.73;30.71;34.85;;
69609;Laerm;56815;52.320;4.858;2022-08-21T00:17:58;32.90;30.73;34.85;;
69609;Laerm;56815;52.320;4.858;2022-08-21T00:18:09;32.12;30.58;34.05;;
69609;Laerm;56815;52.320;4.858;2022-08-21T00:18:20;32.46;30.58;38.02;;
69609;Laerm;56815;52.320;4.858;2022-08-21T00:18:31;32.55;30.87;34.32;;
69609;Laerm;56815;52.320;4.858;2022-08-21T00:18:41;32.76;30.82;34.40;;
69609;Laerm;56815;52.320;4.858;2022-08-21T00:18:52;32.88;30.30;34.89;;
69609;Laerm;56815;52.320;4.858;2022-08-21T00:19:02;32.03;29.95;36.34;;
69609;Laerm;56815;52.320;4.858;2022-08-21T00:19:13;32.60;30.74;34.77;;
69609;Laerm;56815;52.320;4.858;2022-08-21T00:19:24;33.07;31.07;36.31;;
69609;Laerm;56815;52.320;4.858;2022-08-21T00:19:34;34.20;31.59;36.89;;
69609;Laerm;56815;52.320;4.858;2022-08-21T00:19:45;32.99;31.04;35.43;;
69609;Laerm;56815;52.320;4.858;2022-08-21T00:19:56;33.34;31.40;37.78;;
69609;Laerm;56815;52.320;4.858;2022-08-21T00:20:07;34.07;31.42;37.96;;
69609;Laerm;56815;52.320;4.858;2022-08-21T00:20:19;33.32;31.19;36.38;;
69609;Laerm;56815;52.320;4.858;2022-08-21T00:20:29;34.61;32.47;37.03;;
69609;Laerm;56815;52.320;4.858;2022-08-21T00:20:40;34.13;31.86;37.13;;
69609;Laerm;56815;52.320;4.858;2022-08-21T00:20:51;32.90;31.27;35.33;;
69609;Laerm;56815;52.320;4.858;2022-08-21T00:21:02;33.36;31.29;48.49;;
69609;Laerm;56815;52.320;4.858;2022-08-21T00:21:13;33.94;31.50;36.66;;
69609;Laerm;56815;52.320;4.858;2022-08-21T00:21:23;33.27;31.42;35.45;;
69609;Laerm;56815;52.320;4.858;2022-08-21T00:21:35;32.88;30.71;35.38;;
69609;Laerm;56815;52.320;4.858;2022-08-21T00:21:46;33.64;31.24;35.80;;
69609;Laerm;56815;52.320;4.858;2022-08-21T00:21:56;32.76;30.83;35.10;;
69609;Laerm;56815;52.320;4.858;2022-08-21T00:22:07;32.24;30.61;34.31;;
69609;Laerm;56815;52.320;4.858;2022-08-21T00:22:17;32.43;30.89;34.24;;
69609;Laerm;56815;52.320;4.858;2022-08-21T00:22:27;32.33;30.51;33.61;;
69609;Laerm;56815;52.320;4.858;2022-08-21T00:22:38;34.43;31.29;45.67;;
69609;Laerm;56815;52.320;4.858;2022-08-21T00:22:49;33.59;31.27;37.02;;
69609;Laerm;56815;52.320;4.858;2022-08-21T00:23:00;33.21;30.85;37.81;;
69609;Laerm;56815;52.320;4.858;2022-08-21T00:23:10;32.92;30.96;36.23;;
69609;Laerm;56815;52.320;4.858;2022-08-21T00:23:21;32.90;30.46;36.68;;
69609;Laerm;56815;52.320;4.858;2022-08-21T00:23:33;34.53;31.62;45.76;;
69609;Laerm;56815;52.320;4.858;2022-08-21T00:23:43;33.07;30.38;43.44;;
69609;Laerm;56815;52.320;4.858;2022-08-21T00:23:53;32.26;30.35;34.12;;
69609;Laerm;56815;52.320;4.858;2022-08-21T00:24:04;32.40;30.23;39.28;;
69609;Laerm;56815;52.320;4.858;2022-08-21T00:24:15;32.11;30.29;34.18;;
69609;Laerm;56815;52.320;4.858;2022-08-21T00:24:25;31.77;29.87;33.50;;
69609;Laerm;56815;52.320;4.858;2022-08-21T00:24:36;31.88;29.83;35.62;;
69609;Laerm;56815;52.320;4.858;2022-08-21T00:24:46;31.71;29.74;35.10;;
69609;Laerm;56815;52.320;4.858;2022-08-21T00:24:57;32.11;30.37;35.45;;
69609;Laerm;56815;52.320;4.858;2022-08-21T00:25:08;31.76;29.88;37.15;;
69609;Laerm;56815;52.320;4.858;2022-08-21T00:25:19;31.91;30.12;33.84;;
69609;Laerm;56815;52.320;4.858;2022-08-21T00:25:30;35.19;31.09;40.04;;
69609;Laerm;56815;52.320;4.858;2022-08-21T00:25:41;38.03;34.67;42.57;;
69609;Laerm;56815;52.320;4.858;2022-08-21T00:25:51;41.28;37.80;44.78;;
69609;Laerm;56815;52.320;4.858;2022-08-21T00:26:01;40.81;38.30;43.78;;
69609;Laerm;56815;52.320;4.858;2022-08-21T00:26:12;39.06;35.98;41.66;;
69609;Laerm;56815;52.320;4.858;2022-08-21T00:26:22;36.78;34.22;41.29;;
69609;Laerm;56815;52.320;4.858;2022-08-21T00:26:32;34.47;32.18;36.67;;
69609;Laerm;56815;52.320;4.858;2022-08-21T00:26:43;33.48;31.54;35.67;;
69609;Laerm;56815;52.320;4.858;2022-08-21T00:26:53;32.45;30.76;34.18;;
69609;Laerm;56815;52.320;4.858;2022-08-21T00:27:03;32.09;30.21;34.04;;
69609;Laerm;56815;52.320;4.858;2022-08-21T00:27:14;31.66;30.21;33.24;;
69609;Laerm;56815;52.320;4.858;2022-08-21T00:27:24;31.98;30.38;33.70;;
69609;Laerm;56815;52.320;4.858;2022-08-21T00:27:35;32.07;29.99;34.07;;
69609;Laerm;56815;52.320;4.858;2022-08-21T00:27:46;32.35;30.61;34.00;;
69609;Laerm;56815;52.320;4.858;2022-08-21T00:27:56;32.66;30.29;36.05;;
69609;Laerm;56815;52.320;4.858;2022-08-21T00:28:07;32.67;30.47;34.68;;
69609;Laerm;56815;52.320;4.858;2022-08-21T00:28:18;32.56;30.38;43.52;;
69609;Laerm;56815;52.320;4.858;2022-08-21T00:28:28;32.35;30.20;34.39;;
69609;Laerm;56815;52.320;4.858;2022-08-21T00:28:39;33.24;31.50;35.29;;
69609;Laerm;56815;52.320;4.858;2022-08-21T00:28:49;34.65;31.88;37.60;;
69609;Laerm;56815;52.320;4.858;2022-08-21T00:29:00;39.44;33.09;45.10;;
69609;Laerm;56815;52.320;4.858;2022-08-21T00:29:10;47.76;43.56;51.19;;
69609;Laerm;56815;52.320;4.858;2022-08-21T00:29:21;50.66;43.22;56.26;;
69609;Laerm;56815;52.320;4.858;2022-08-21T00:29:31;58.05;51.84;62.79;;
69609;Laerm;56815;52.320;4.858;2022-08-21T00:29:41;52.32;38.24;59.51;;
69609;Laerm;56815;52.320;4.858;2022-08-21T00:29:52;36.16;32.07;39.56;;
69609;Laerm;56815;52.320;4.858;2022-08-21T00:30:04;33.31;30.85;40.55;;
69609;Laerm;56815;52.320;4.858;2022-08-21T00:30:16;32.27;30.04;34.42;;
69609;Laerm;56815;52.320;4.858;2022-08-21T00:30:27;31.70;29.83;34.93;;
69609;Laerm;56815;52.320;4.858;2022-08-21T00:30:39;32.32;30.31;35.05;;
69609;Laerm;56815;52.320;4.858;2022-08-21T00:30:49;32.10;30.13;34.32;;
69609;Laerm;56815;52.320;4.858;2022-08-21T00:31:00;32.97;30.63;39.82;;
69609;Laerm;56815;52.320;4.858;2022-08-21T00:31:13;32.74;30.51;35.43;;
69609;Laerm;56815;52.320;4.858;2022-08-21T00:31:24;32.17;29.98;38.52;;
69609;Laerm;56815;52.320;4.858;2022-08-21T00:31:34;31.92;29.91;34.11;;
69609;Laerm;56815;52.320;4.858;2022-08-21T00:31:44;32.05;29.92;34.17;;
69609;Laerm;56815;52.320;4.858;2022-08-21T00:31:55;32.67;30.03;40.30;;
69609;Laerm;56815;52.320;4.858;2022-08-21T00:32:05;31.94;29.62;34.22;;
69609;Laerm;56815;52.320;4.858;2022-08-21T00:32:19;31.26;29.39;37.14;;
69609;Laerm;56815;52.320;4.858;2022-08-21T00:32:30;31.95;29.38;42.56;;
69609;Laerm;56815;52.320;4.858;2022-08-21T00:32:40;32.15;30.47;34.11;;
69609;Laerm;56815;52.320;4.858;2022-08-21T00:32:52;31.61;29.72;33.68;;
69609;Laerm;56815;52.320;4.858;2022-08-21T00:33:03;31.52;29.57;34.48;;
69609;Laerm;56815;52.320;4.858;2022-08-21T00:33:14;31.58;29.70;33.54;;
69609;Laerm;56815;52.320;4.858;2022-08-21T00:33:24;31.56;29.68;34.38;;
69609;Laerm;56815;52.320;4.858;2022-08-21T00:33:35;31.47;29.87;33.65;;
69609;Laerm;56815;52.320;4.858;2022-08-21T00:33:48;31.77;30.01;34.42;;
69609;Laerm;56815;52.320;4.858;2022-08-21T00:33:59;32.68;30.91;34.44;;
69609;Laerm;56815;52.320;4.858;2022-08-21T00:34:09;32.31;30.73;34.79;;
69609;Laerm;56815;52.320;4.858;2022-08-21T00:34:20;32.11;30.44;34.23;;
69609;Laerm;56815;52.320;4.858;2022-08-21T00:34:30;32.25;30.22;34.23;;
69609;Laerm;56815;52.320;4.858;2022-08-21T00:34:41;31.96;29.96;34.58;;
69609;Laerm;56815;52.320;4.858;2022-08-21T00:34:51;34.11;31.88;37.64;;
69609;Laerm;56815;52.320;4.858;2022-08-21T00:35:03;32.81;30.81;35.72;;
69609;Laerm;56815;52.320;4.858;2022-08-21T00:35:15;32.36;30.33;36.49;;
69609;Laerm;56815;52.320;4.858;2022-08-21T00:35:27;32.14;30.37;34.09;;
69609;Laerm;56815;52.320;4.858;2022-08-21T00:35:39;32.14;30.07;35.30;;
69609;Laerm;56815;52.320;4.858;2022-08-21T00:35:50;31.59;30.03;33.14;;
69609;Laerm;56815;52.320;4.858;2022-08-21T00:36:00;31.72;29.67;33.61;;
69609;Laerm;56815;52.320;4.858;2022-08-21T00:36:11;32.05;30.37;34.21;;
69609;Laerm;56815;52.320;4.858;2022-08-21T00:36:22;31.98;30.64;35.46;;
69609;Laerm;56815;52.320;4.858;2022-08-21T00:36:33;32.85;30.67;35.95;;
69609;Laerm;56815;52.320;4.858;2022-08-21T00:36:43;32.10;30.38;34.03;;
69609;Laerm;56815;52.320;4.858;2022-08-21T00:36:54;32.17;30.47;36.16;;
69609;Laerm;56815;52.320;4.858;2022-08-21T00:37:04;33.99;30.51;37.03;;
69609;Laerm;56815;52.320;4.858;2022-08-21T00:37:14;31.30;29.46;32.70;;
69609;Laerm;56815;52.320;4.858;2022-08-21T00:37:25;31.14;29.85;32.74;;
69609;Laerm;56815;52.320;4.858;2022-08-21T00:37:35;31.30;29.81;33.53;;
69609;Laerm;56815;52.320;4.858;2022-08-21T00:37:45;31.50;29.88;32.92;;
69609;Laerm;56815;52.320;4.858;2022-08-21T00:37:56;31.26;29.22;34.46;;
69609;Laerm;56815;52.320;4.858;2022-08-21T00:38:10;31.29;29.58;33.68;;
69609;Laerm;56815;52.320;4.858;2022-08-21T00:38:20;30.96;29.70;32.44;;
69609;Laerm;56815;52.320;4.858;2022-08-21T00:38:31;31.33;29.62;33.21;;
69609;Laerm;56815;52.320;4.858;2022-08-21T00:38:41;31.07;29.05;32.30;;
69609;Laerm;56815;52.320;4.858;2022-08-21T00:38:51;31.67;30.05;33.72;;
69609;Laerm;56815;52.320;4.858;2022-08-21T00:39:03;32.05;30.60;33.95;;
69609;Laerm;56815;52.320;4.858;2022-08-21T00:39:13;31.89;30.26;33.54;;
69609;Laerm;56815;52.320;4.858;2022-08-21T00:39:24;31.82;29.92;35.27;;
69609;Laerm;56815;52.320;4.858;2022-08-21T00:39:34;32.44;29.94;34.93;;
69609;Laerm;56815;52.320;4.858;2022-08-21T00:39:45;32.40;29.91;36.89;;
69609;Laerm;56815;52.320;4.858;2022-08-21T00:39:55;31.14;29.53;32.91;;
69609;Laerm;56815;52.320;4.858;2022-08-21T00:40:07;31.67;30.11;33.39;;
69609;Laerm;56815;52.320;4.858;2022-08-21T00:40:21;32.04;30.47;34.06;;
69609;Laerm;56815;52.320;4.858;2022-08-21T00:40:34;32.24;29.69;42.89;;
69609;Laerm;56815;52.320;4.858;2022-08-21T00:40:49;32.49;30.64;35.22;;
69609;Laerm;56815;52.320;4.858;2022-08-21T00:41:01;31.88;29.99;34.58;;
69609;Laerm;56815;52.320;4.858;2022-08-21T00:41:11;32.53;30.70;35.29;;
69609;Laerm;56815;52.320;4.858;2022-08-21T00:41:22;32.11;30.35;33.98;;
69609;Laerm;56815;52.320;4.858;2022-08-21T00:41:34;32.30;30.63;34.34;;
69609;Laerm;56815;52.320;4.858;2022-08-21T00:41:45;31.78;29.80;33.88;;
69609;Laerm;56815;52.320;4.858;2022-08-21T00:41:56;32.37;30.41;34.28;;
69609;Laerm;56815;52.320;4.858;2022-08-21T00:42:06;33.40;31.41;35.87;;
69609;Laerm;56815;52.320;4.858;2022-08-21T00:42:17;33.60;31.75;36.36;;
69609;Laerm;56815;52.320;4.858;2022-08-21T00:42:28;33.13;30.94;35.31;;
69609;Laerm;56815;52.320;4.858;2022-08-21T00:42:38;32.97;31.57;34.77;;
69609;Laerm;56815;52.320;4.858;2022-08-21T00:42:49;32.68;30.52;34.94;;
69609;Laerm;56815;52.320;4.858;2022-08-21T00:43:01;33.54;30.90;37.25;;
69609;Laerm;56815;52.320;4.858;2022-08-21T00:43:16;33.99;30.65;37.18;;
69609;Laerm;56815;52.320;4.858;2022-08-21T00:43:29;32.18;29.93;34.19;;
69609;Laerm;56815;52.320;4.858;2022-08-21T00:43:39;32.03;30.04;33.97;;
69609;Laerm;56815;52.320;4.858;2022-08-21T00:43:50;32.39;30.48;35.31;;
69609;Laerm;56815;52.320;4.858;2022-08-21T00:44:01;32.59;30.66;36.58;;
69609;Laerm;56815;52.320;4.858;2022-08-21T00:44:13;32.62;31.15;34.32;;
69609;Laerm;56815;52.320;4.858;2022-08-21T00:44:23;32.71;30.18;34.63;;
69609;Laerm;56815;52.320;4.858;2022-08-21T00:44:34;32.96;30.47;34.76;;
69609;Laerm;56815;52.320;4.858;2022-08-21T00:44:45;32.24;30.02;41.32;;
69609;Laerm;56815;52.320;4.858;2022-08-21T00:44:56;32.14;30.62;34.26;;
69609;Laerm;56815;52.320;4.858;2022-08-21T00:45:06;32.35;30.64;34.03;;
69609;Laerm;56815;52.320;4.858;2022-08-21T00:45:17;33.24;31.32;37.37;;
69609;Laerm;56815;52.320;4.858;2022-08-21T00:45:27;32.82;30.72;35.77;;
69609;Laerm;56815;52.320;4.858;2022-08-21T00:45:38;33.00;30.86;36.07;;
69609;Laerm;56815;52.320;4.858;2022-08-21T00:45:49;33.14;31.35;36.06;;
69609;Laerm;56815;52.320;4.858;2022-08-21T00:45:59;32.97;30.79;36.42;;
69609;Laerm;56815;52.320;4.858;2022-08-21T00:46:10;33.57;31.52;36.81;;
69609;Laerm;56815;52.320;4.858;2022-08-21T00:46:21;33.07;31.37;34.78;;
69609;Laerm;56815;52.320;4.858;2022-08-21T00:46:31;33.09;30.86;36.26;;
69609;Laerm;56815;52.320;4.858;2022-08-21T00:46:42;32.74;30.83;35.02;;
69609;Laerm;56815;52.320;4.858;2022-08-21T00:46:52;31.74;29.91;33.88;;
69609;Laerm;56815;52.320;4.858;2022-08-21T00:47:03;31.30;29.71;32.78;;
69609;Laerm;56815;52.320;4.858;2022-08-21T00:47:13;31.83;30.15;33.95;;
69609;Laerm;56815;52.320;4.858;2022-08-21T00:47:24;31.97;29.88;34.43;;
69609;Laerm;56815;52.320;4.858;2022-08-21T00:47:34;31.39;28.82;33.42;;
69609;Laerm;56815;52.320;4.858;2022-08-21T00:47:45;31.17;29.28;33.32;;
69609;Laerm;56815;52.320;4.858;2022-08-21T00:47:55;31.33;29.44;33.29;;
69609;Laerm;56815;52.320;4.858;2022-08-21T00:48:06;31.30;29.17;35.17;;
69609;Laerm;56815;52.320;4.858;2022-08-21T00:48:16;32.65;30.00;35.69;;
69609;Laerm;56815;52.320;4.858;2022-08-21T00:48:27;31.37;29.83;32.98;;
69609;Laerm;56815;52.320;4.858;2022-08-21T00:48:38;31.28;29.81;33.36;;
69609;Laerm;56815;52.320;4.858;2022-08-21T00:48:48;31.96;29.77;34.66;;
69609;Laerm;56815;52.320;4.858;2022-08-21T00:48:58;32.40;30.48;34.56;;
69609;Laerm;56815;52.320;4.858;2022-08-21T00:49:10;31.66;30.02;38.17;;
69609;Laerm;56815;52.320;4.858;2022-08-21T00:49:22;31.19;29.44;33.04;;
69609;Laerm;56815;52.320;4.858;2022-08-21T00:49:32;31.16;29.95;32.65;;
69609;Laerm;56815;52.320;4.858;2022-08-21T00:49:43;31.28;29.68;34.76;;
69609;Laerm;56815;52.320;4.858;2022-08-21T00:49:53;31.12;28.99;32.72;;
69609;Laerm;56815;52.320;4.858;2022-08-21T00:50:04;31.38;29.95;35.40;;
69609;Laerm;56815;52.320;4.858;2022-08-21T00:50:15;31.46;29.50;34.79;;
69609;Laerm;56815;52.320;4.858;2022-08-21T00:50:27;30.96;29.21;34.47;;
69609;Laerm;56815;52.320;4.858;2022-08-21T00:50:41;31.11;29.39;32.97;;
69609;Laerm;56815;52.320;4.858;2022-08-21T00:51:12;31.70;29.56;34.89;;
69609;Laerm;56815;52.320;4.858;2022-08-21T00:51:24;32.06;29.76;36.15;;
69609;Laerm;56815;52.320;4.858;2022-08-21T00:51:43;32.26;30.12;34.42;;
69609;Laerm;56815;52.320;4.858;2022-08-21T00:51:57;32.62;30.16;35.66;;
69609;Laerm;56815;52.320;4.858;2022-08-21T00:52:11;32.72;30.67;34.89;;
69609;Laerm;56815;52.320;4.858;2022-08-21T00:52:24;31.78;30.34;33.42;;
69609;Laerm;56815;52.320;4.858;2022-08-21T00:52:35;32.56;30.05;35.08;;
69609;Laerm;56815;52.320;4.858;2022-08-21T00:52:46;32.75;30.24;35.96;;
69609;Laerm;56815;52.320;4.858;2022-08-21T00:52:57;31.80;30.23;35.21;;
69609;Laerm;56815;52.320;4.858;2022-08-21T00:53:08;31.47;29.96;33.00;;
69609;Laerm;56815;52.320;4.858;2022-08-21T00:53:20;31.96;30.31;33.71;;
69609;Laerm;56815;52.320;4.858;2022-08-21T00:53:31;32.42;30.22;34.22;;
69609;Laerm;56815;52.320;4.858;2022-08-21T00:53:43;31.98;30.15;34.15;;
69609;Laerm;56815;52.320;4.858;2022-08-21T00:53:56;31.82;29.95;33.62;;
69609;Laerm;56815;52.320;4.858;2022-08-21T00:54:07;31.60;29.33;33.73;;
69609;Laerm;56815;52.320;4.858;2022-08-21T00:54:20;32.52;29.31;35.57;;
69609;Laerm;56815;52.320;4.858;2022-08-21T00:54:32;32.99;31.11;35.42;;
69609;Laerm;56815;52.320;4.858;2022-08-21T00:54:43;32.49;30.29;44.96;;
69609;Laerm;56815;52.320;4.858;2022-08-21T00:54:54;32.31;30.72;34.49;;
69609;Laerm;56815;52.320;4.858;2022-08-21T00:55:05;32.34;30.33;35.09;;
69609;Laerm;56815;52.320;4.858;2022-08-21T00:55:17;32.71;30.09;38.67;;
69609;Laerm;56815;52.320;4.858;2022-08-21T00:55:29;31.67;29.96;40.76;;
69609;Laerm;56815;52.320;4.858;2022-08-21T00:55:40;31.85;30.16;35.48;;
69609;Laerm;56815;52.320;4.858;2022-08-21T00:55:51;31.88;30.26;35.28;;
69609;Laerm;56815;52.320;4.858;2022-08-21T00:56:03;31.96;30.47;34.11;;
69609;Laerm;56815;52.320;4.858;2022-08-21T00:56:15;31.92;30.10;34.99;;
69609;Laerm;56815;52.320;4.858;2022-08-21T00:56:25;32.52;30.77;40.32;;
69609;Laerm;56815;52.320;4.858;2022-08-21T00:56:36;32.94;31.23;35.21;;
69609;Laerm;56815;52.320;4.858;2022-08-21T00:56:48;32.22;30.54;33.84;;
69609;Laerm;56815;52.320;4.858;2022-08-21T00:57:02;31.92;29.80;33.97;;
69609;Laerm;56815;52.320;4.858;2022-08-21T00:57:17;31.66;29.76;33.30;;
69609;Laerm;56815;52.320;4.858;2022-08-21T00:57:31;31.98;29.95;34.22;;
69609;Laerm;56815;52.320;4.858;2022-08-21T00:57:43;32.36;30.18;34.17;;
69609;Laerm;56815;52.320;4.858;2022-08-21T00:57:56;32.20;30.30;34.24;;
69609;Laerm;56815;52.320;4.858;2022-08-21T00:58:08;32.29;30.47;35.10;;
69609;Laerm;56815;52.320;4.858;2022-08-21T00:58:19;32.51;30.42;35.95;;
69609;Laerm;56815;52.320;4.858;2022-08-21T00:58:30;32.50;30.33;34.72;;
69609;Laerm;56815;52.320;4.858;2022-08-21T00:58:41;33.13;31.33;35.74;;
69609;Laerm;56815;52.320;4.858;2022-08-21T00:58:52;33.77;31.65;35.81;;
69609;Laerm;56815;52.320;4.858;2022-08-21T00:59:04;33.92;32.02;36.84;;
69609;Laerm;56815;52.320;4.858;2022-08-21T00:59:16;34.31;32.23;36.66;;
69609;Laerm;56815;52.320;4.858;2022-08-21T00:59:27;35.43;31.83;41.74;;
69609;Laerm;56815;52.320;4.858;2022-08-21T00:59:38;36.89;32.99;42.53;;
69609;Laerm;56815;52.320;4.858;2022-08-21T00:59:51;34.48;31.87;37.79;;
69609;Laerm;56815;52.320;4.858;2022-08-21T01:00:04;33.91;31.66;36.56;;
69609;Laerm;56815;52.320;4.858;2022-08-21T01:00:19;33.46;31.49;35.42;;
69609;Laerm;56815;52.320;4.858;2022-08-21T01:00:31;33.15;30.97;35.55;;
69609;Laerm;56815;52.320;4.858;2022-08-21T01:00:43;33.80;31.59;39.46;;
69609;Laerm;56815;52.320;4.858;2022-08-21T01:00:53;33.35;31.47;35.29;;
69609;Laerm;56815;52.320;4.858;2022-08-21T01:01:04;32.86;30.29;35.14;;
69609;Laerm;56815;52.320;4.858;2022-08-21T01:01:15;33.08;31.13;34.66;;
69609;Laerm;56815;52.320;4.858;2022-08-21T01:01:25;33.55;31.68;36.04;;
69609;Laerm;56815;52.320;4.858;2022-08-21T01:01:37;33.16;31.58;34.62;;
69609;Laerm;56815;52.320;4.858;2022-08-21T01:01:48;32.95;31.25;34.77;;
69609;Laerm;56815;52.320;4.858;2022-08-21T01:01:58;32.77;30.70;34.87;;
69609;Laerm;56815;52.320;4.858;2022-08-21T01:02:09;32.58;30.46;34.37;;
69609;Laerm;56815;52.320;4.858;2022-08-21T01:02:20;32.11;30.11;38.03;;